createdAt,value
2023-06-17T00:02:24.741Z,60.95
2023-06-17T00:04:54.744Z,61.06
2023-06-17T00:07:24.186Z,61.02
2023-06-17T00:09:53.746Z,61.29
2023-06-17T00:12:24.011Z,61.16
2023-06-17T00:14:54.301Z,61.21
2023-06-17T00:17:25.725Z,61.37
2023-06-17T00:19:57.840Z,61.38
2023-06-17T00:22:31.297Z,61.55
2023-06-17T00:25:01.565Z,61.61
2023-06-17T00:27:32.168Z,61.62
2023-06-17T00:30:02.516Z,61.69
2023-06-17T00:32:33.902Z,61.74
2023-06-17T00:35:13.454Z,61.90
2023-06-17T00:37:44.605Z,61.90
2023-06-17T00:40:15.162Z,62.05
2023-06-17T00:42:43.389Z,62.15
2023-06-17T00:45:12.831Z,62.19
2023-06-17T00:47:44.694Z,62.19
2023-06-17T00:50:16.070Z,62.23
2023-06-17T00:52:48.189Z,62.20
2023-06-17T00:55:15.892Z,62.24
2023-06-17T00:57:48.262Z,62.37
2023-06-17T01:00:20.842Z,62.52
2023-06-17T01:02:50.968Z,62.57
2023-06-17T01:05:21.311Z,62.76
2023-06-17T01:08:00.732Z,63.00
2023-06-17T01:10:39.566Z,63.01
2023-06-17T01:13:08.935Z,63.14
2023-06-17T01:18:10.464Z,63.18
2023-06-17T01:20:43.431Z,63.36
2023-06-17T01:23:15.718Z,63.31
2023-06-17T01:25:46.833Z,63.35
2023-06-17T01:28:20.609Z,63.27
2023-06-17T01:30:50.069Z,63.36
2023-06-17T01:33:21.398Z,63.42
2023-06-17T01:36:11.778Z,63.28
2023-06-17T01:38:45.417Z,62.98
2023-06-17T01:41:16.563Z,62.89
2023-06-17T01:43:46.409Z,62.81
2023-06-17T01:46:15.792Z,62.77
2023-06-17T01:48:46.689Z,62.69
2023-06-17T01:51:15.920Z,62.65
2023-06-17T01:53:50.065Z,62.73
2023-06-17T01:56:18.801Z,62.73
2023-06-17T01:58:50.616Z,62.63
2023-06-17T02:01:19.105Z,62.67
2023-06-17T02:03:48.825Z,62.67
2023-06-17T02:06:19.210Z,62.67
2023-06-17T02:08:50.354Z,62.64
2023-06-17T02:11:20.494Z,62.61
2023-06-17T02:13:49.954Z,62.70
2023-06-17T02:16:20.269Z,62.75
2023-06-17T02:18:49.600Z,62.83
2023-06-17T02:21:20.082Z,62.78
2023-06-17T02:23:50.420Z,62.74
2023-06-17T02:26:19.929Z,62.81
2023-06-17T02:28:54.222Z,62.77
2023-06-17T02:31:24.558Z,62.78
2023-06-17T02:33:53.736Z,62.77
2023-06-17T02:36:23.050Z,62.90
2023-06-17T02:38:54.535Z,62.94
2023-06-17T02:41:25.030Z,63.14
2023-06-17T02:43:56.645Z,63.18
2023-06-17T02:46:29.648Z,63.33
2023-06-17T02:48:58.600Z,63.41
2023-06-17T02:51:30.083Z,63.37
2023-06-17T02:53:59.632Z,63.51
2023-06-17T02:56:34.712Z,63.65
2023-06-17T02:59:09.340Z,63.79
2023-06-17T03:01:40.171Z,63.81
2023-06-17T03:04:14.524Z,64.01
2023-06-17T03:06:45.353Z,64.01
2023-06-17T03:09:15.048Z,64.19
2023-06-17T03:11:46.940Z,64.19
2023-06-17T03:14:20.223Z,64.38
2023-06-17T03:16:52.288Z,64.50
2023-06-17T03:19:23.267Z,64.59
2023-06-17T03:21:51.867Z,64.74
2023-06-17T03:24:22.689Z,64.83
2023-06-17T03:26:54.617Z,64.87
2023-06-17T03:29:28.206Z,64.93
2023-06-17T03:31:58.002Z,64.93
2023-06-17T03:34:32.014Z,65.06
2023-06-17T03:37:01.471Z,65.11
2023-06-17T03:39:31.434Z,65.13
2023-06-17T03:41:59.306Z,65.29
2023-06-17T03:44:30.979Z,65.34
2023-06-17T03:47:00.913Z,65.49
2023-06-17T03:49:32.954Z,65.46
2023-06-17T03:52:02.679Z,65.56
2023-06-17T03:54:34.404Z,65.61
2023-06-17T03:57:03.241Z,65.76
2023-06-17T03:59:36.221Z,65.89
2023-06-17T04:02:07.573Z,65.88
2023-06-17T04:04:36.276Z,65.88
2023-06-17T04:07:05.272Z,66.00
2023-06-17T04:09:35.614Z,66.01
2023-06-17T04:12:06.707Z,66.04
2023-06-17T04:14:39.706Z,66.04
2023-06-17T04:17:09.558Z,66.18
2023-06-17T04:19:39.523Z,66.21
2023-06-17T04:22:10.097Z,66.23
2023-06-17T04:24:39.702Z,66.34
2023-06-17T04:27:11.488Z,66.40
2023-06-17T04:29:39.372Z,66.35
2023-06-17T04:32:11.250Z,66.54
2023-06-17T04:34:43.598Z,66.54
2023-06-17T04:37:14.303Z,66.64
2023-06-17T04:39:44.759Z,66.73
2023-06-17T04:42:16.126Z,66.89
2023-06-17T04:44:51.045Z,66.98
2023-06-17T04:47:20.610Z,67.04
2023-06-17T04:49:53.407Z,67.08
2023-06-17T04:52:26.941Z,67.17
2023-06-17T04:54:57.935Z,67.29
2023-06-17T04:57:31.002Z,67.21
2023-06-17T05:00:03.403Z,67.23
2023-06-17T05:02:34.426Z,67.29
2023-06-17T05:05:04.223Z,67.44
2023-06-17T05:07:33.336Z,67.62
2023-06-17T05:10:04.612Z,67.55
2023-06-17T05:12:37.085Z,67.71
2023-06-17T05:15:15.622Z,67.69
2023-06-17T05:17:55.027Z,67.73
2023-06-17T05:20:32.092Z,67.75
2023-06-17T05:23:03.464Z,67.89
2023-06-17T05:25:34.591Z,68.03
2023-06-17T05:28:08.067Z,67.92
2023-06-17T05:30:44.433Z,67.72
2023-06-17T05:33:17.697Z,67.89
2023-06-17T05:35:50.734Z,67.97
2023-06-17T05:38:36.838Z,67.91
2023-06-17T05:41:15.499Z,68.12
2023-06-17T05:43:47.709Z,68.19
2023-06-17T05:46:22.321Z,68.13
2023-06-17T05:48:55.185Z,68.22
2023-06-17T05:51:30.803Z,68.20
2023-06-17T05:54:09.964Z,68.26
2023-06-17T05:56:52.133Z,68.36
2023-06-17T05:59:30.787Z,68.36
2023-06-17T06:02:22.092Z,68.32
2023-06-17T06:05:08.320Z,68.43
2023-06-17T06:11:20.051Z,68.43
2023-06-17T06:14:00.344Z,68.48
2023-06-17T06:16:39.741Z,68.61
2023-06-17T06:19:16.846Z,68.69
2023-06-17T06:21:51.817Z,68.60
2023-06-17T06:24:37.168Z,68.77
2023-06-17T06:27:16.182Z,68.82
2023-06-17T06:29:53.160Z,68.68
2023-06-17T06:32:32.936Z,68.61
2023-06-17T06:35:21.200Z,68.72
2023-06-17T06:38:06.740Z,68.48
2023-06-17T06:40:49.425Z,68.40
2023-06-17T06:43:33.323Z,68.33
2023-06-17T06:46:23.609Z,68.19
2023-06-17T06:49:04.314Z,68.00
2023-06-17T06:51:45.888Z,67.84
2023-06-17T06:54:30.698Z,67.58
2023-06-17T06:57:14.505Z,67.53
2023-06-17T06:59:56.466Z,67.68
2023-06-17T07:02:41.220Z,67.69
2023-06-17T07:09:25.628Z,67.46
2023-06-17T07:16:12.341Z,67.67
2023-06-17T07:18:50.397Z,67.46
2023-06-17T07:21:37.336Z,67.53
2023-06-17T07:24:09.669Z,67.70
2023-06-17T07:26:45.545Z,67.75
2023-06-17T07:29:22.217Z,67.63
2023-06-17T07:32:03.684Z,67.69
2023-06-17T07:35:16.515Z,67.37
2023-06-17T07:38:09.030Z,67.37
2023-06-17T07:40:54.023Z,67.02
2023-06-17T07:43:37.274Z,66.75
2023-06-17T07:46:32.884Z,66.86
2023-06-17T07:49:16.593Z,66.78
2023-06-17T07:52:15.114Z,65.71
2023-06-17T07:54:57.944Z,65.36
2023-06-17T07:57:33.357Z,64.86
2023-06-17T08:00:29.406Z,64.38
2023-06-17T08:03:08.054Z,64.51
2023-06-17T08:05:47.999Z,64.04
2023-06-17T08:08:32.505Z,64.17
2023-06-17T08:15:16.122Z,62.44
2023-06-17T08:17:55.956Z,62.68
2023-06-17T08:20:33.463Z,60.63
2023-06-17T08:23:14.412Z,59.57
2023-06-17T08:25:57.621Z,58.64
2023-06-17T08:28:47.468Z,58.36
2023-06-17T08:31:37.547Z,59.43
2023-06-17T08:34:34.397Z,59.73
2023-06-17T08:37:40.473Z,58.24
2023-06-17T08:40:40.102Z,59.78
2023-06-17T08:43:34.489Z,59.69
2023-06-17T08:46:20.208Z,58.44
2023-06-17T08:49:06.177Z,57.30
2023-06-17T08:51:50.583Z,57.53
2023-06-17T08:54:50.000Z,56.90
2023-06-17T08:57:50.304Z,57.53
2023-06-17T09:00:46.624Z,57.71
2023-06-17T09:03:53.266Z,57.34
2023-06-17T09:06:57.390Z,56.62
2023-06-17T09:10:03.229Z,56.34
2023-06-17T09:12:43.237Z,56.63
2023-06-17T09:15:30.528Z,56.44
2023-06-17T09:18:20.429Z,56.43
2023-06-17T09:21:21.812Z,56.86
2023-06-17T09:24:09.052Z,56.60
2023-06-17T09:27:01.197Z,56.57
2023-06-17T09:30:25.104Z,56.55
2023-06-17T09:33:39.686Z,56.59
2023-06-17T09:37:02.494Z,56.42
2023-06-17T09:40:12.194Z,56.43
2023-06-17T09:43:27.639Z,56.25
2023-06-17T09:46:52.954Z,55.95
2023-06-17T09:49:45.862Z,55.85
2023-06-17T09:52:40.923Z,55.85
2023-06-17T09:55:35.970Z,55.63
2023-06-17T09:58:21.499Z,55.43
2023-06-17T10:01:10.782Z,55.46
2023-06-17T10:04:11.070Z,55.33
2023-06-17T10:07:00.776Z,55.61
2023-06-17T10:09:44.519Z,55.48
2023-06-17T10:16:53.842Z,55.82
2023-06-17T10:20:30.254Z,56.29
2023-06-17T10:23:44.355Z,56.24
2023-06-17T10:30:20.054Z,56.07
2023-06-17T10:33:15.870Z,56.36
2023-06-17T10:36:21.136Z,56.99
2023-06-17T10:39:14.696Z,56.39
2023-06-17T10:42:02.130Z,55.70
2023-06-17T10:44:52.817Z,55.45
2023-06-17T10:47:34.836Z,55.18
2023-06-17T10:50:19.333Z,54.62
2023-06-17T10:53:11.323Z,54.48
2023-06-17T10:55:56.651Z,55.32
2023-06-17T10:58:54.897Z,54.85
2023-06-17T11:02:22.525Z,54.89
2023-06-17T11:05:29.204Z,55.26
2023-06-17T11:08:30.127Z,55.18
2023-06-17T11:12:10.820Z,55.19
2023-06-17T11:15:26.923Z,55.49
2023-06-17T11:18:23.202Z,55.12
2023-06-17T11:21:17.220Z,54.02
2023-06-17T11:24:40.857Z,53.93
2023-06-17T11:27:45.290Z,53.51
2023-06-17T11:30:53.103Z,53.63
2023-06-17T11:34:25.021Z,53.93
2023-06-17T11:37:30.489Z,53.93
2023-06-17T11:40:36.657Z,53.46
2023-06-17T11:43:36.913Z,52.70
2023-06-17T11:46:51.053Z,52.36
2023-06-17T11:49:55.914Z,52.26
2023-06-17T11:53:03.083Z,52.81
2023-06-17T11:55:58.865Z,52.35
2023-06-17T11:58:59.520Z,52.01
2023-06-17T12:01:46.812Z,52.20
2023-06-17T12:04:29.875Z,52.06
2023-06-17T12:07:21.273Z,51.67
2023-06-17T12:10:07.099Z,51.64
2023-06-17T12:13:28.484Z,51.54
2023-06-17T12:16:32.618Z,51.25
2023-06-17T12:19:36.492Z,51.03
2023-06-17T12:22:27.063Z,51.39
2023-06-17T12:25:29.974Z,50.61
2023-06-17T12:28:44.504Z,49.76
2023-06-17T12:31:49.639Z,50.14
2023-06-17T12:34:44.640Z,50.15
2023-06-17T12:37:49.535Z,50.17
2023-06-17T12:40:49.678Z,49.95
2023-06-17T12:43:18.078Z,49.99
2023-06-17T12:45:48.364Z,49.57
2023-06-17T12:48:17.705Z,49.47
2023-06-17T12:50:45.786Z,49.39
2023-06-17T12:53:14.230Z,49.11
2023-06-17T12:55:43.664Z,49.04
2023-06-17T12:58:12.825Z,48.89
2023-06-17T13:00:45.241Z,48.77
2023-06-17T13:03:14.028Z,48.70
2023-06-17T13:05:44.549Z,48.50
2023-06-17T13:08:15.007Z,48.38
2023-06-17T13:10:45.273Z,48.25
2023-06-17T13:13:13.260Z,48.24
2023-06-17T13:20:01.381Z,47.66
2023-06-17T13:22:30.752Z,47.48
2023-06-17T13:25:00.468Z,47.64
2023-06-17T13:27:32.016Z,47.57
2023-06-17T13:30:14.004Z,46.91
2023-06-17T13:32:41.849Z,46.96
2023-06-17T13:35:13.726Z,45.88
2023-06-17T13:38:10.963Z,46.19
2023-06-17T13:40:43.130Z,46.33
2023-06-17T13:43:41.325Z,46.74
2023-06-17T13:46:14.151Z,46.90
2023-06-17T13:48:42.155Z,46.77
2023-06-17T13:51:12.256Z,46.77
2023-06-17T13:53:41.290Z,46.86
2023-06-17T13:56:09.354Z,46.39
2023-06-17T13:58:38.434Z,46.13
2023-06-17T14:01:09.355Z,46.42
2023-06-17T14:03:40.637Z,46.64
2023-06-17T14:06:10.634Z,46.53
2023-06-17T14:08:41.718Z,45.84
2023-06-17T14:11:14.489Z,45.84
2023-06-17T14:13:45.839Z,45.92
2023-06-17T14:16:13.967Z,45.69
2023-06-17T14:18:44.348Z,45.33
2023-06-17T14:21:31.431Z,44.88
2023-06-17T14:24:06.618Z,44.39
2023-06-17T14:26:34.832Z,44.81
2023-06-17T14:29:02.692Z,45.16
2023-06-17T14:31:31.246Z,45.33
2023-06-17T14:34:02.424Z,45.38
2023-06-17T14:36:30.770Z,45.32
2023-06-17T14:39:00.545Z,44.96
2023-06-17T14:41:33.493Z,44.67
2023-06-17T14:44:03.112Z,44.89
2023-06-17T14:46:32.516Z,45.04
2023-06-17T14:49:00.770Z,44.93
2023-06-17T14:51:28.770Z,44.93
2023-06-17T14:53:59.165Z,44.82
2023-06-17T14:56:30.210Z,44.68
2023-06-17T14:58:58.505Z,44.68
2023-06-17T15:01:32.866Z,44.69
2023-06-17T15:04:01.155Z,44.39
2023-06-17T15:06:38.696Z,44.26
2023-06-17T15:09:23.612Z,44.32
2023-06-17T15:11:54.795Z,44.29
2023-06-17T15:14:22.703Z,44.17
2023-06-17T15:16:52.320Z,44.07
2023-06-17T15:19:21.536Z,44.06
2023-06-17T15:21:52.850Z,44.06
2023-06-17T15:24:21.702Z,44.03
2023-06-17T15:26:49.297Z,44.00
2023-06-17T15:29:16.822Z,43.90
2023-06-17T15:31:45.123Z,43.88
2023-06-17T15:34:14.123Z,43.91
2023-06-17T15:36:47.669Z,43.94
2023-06-17T15:39:24.080Z,44.04
2023-06-17T15:41:54.011Z,43.85
2023-06-17T15:44:23.784Z,43.67
2023-06-17T15:46:51.696Z,43.63
2023-06-17T15:49:19.291Z,43.65
2023-06-17T15:51:47.292Z,43.49
2023-06-17T15:54:14.728Z,43.54
2023-06-17T15:56:46.946Z,43.52
2023-06-17T15:59:16.103Z,43.63
2023-06-17T16:01:45.399Z,43.59
2023-06-17T16:04:33.230Z,43.35
2023-06-17T16:07:03.408Z,43.23
2023-06-17T16:12:39.261Z,43.43
2023-06-17T16:15:10.888Z,43.66
2023-06-17T16:17:40.386Z,43.72
2023-06-17T16:20:11.869Z,43.48
2023-06-17T16:22:40.686Z,43.31
2023-06-17T16:25:11.149Z,43.13
2023-06-17T16:27:39.232Z,43.43
2023-06-17T16:30:07.630Z,43.43
2023-06-17T16:32:35.533Z,43.47
2023-06-17T16:35:03.868Z,43.39
2023-06-17T16:37:31.743Z,43.40
2023-06-17T16:40:02.763Z,43.51
2023-06-17T16:45:30.868Z,43.68
2023-06-17T16:47:59.027Z,43.75
2023-06-17T16:50:27.167Z,43.65
2023-06-17T16:52:55.586Z,43.75
2023-06-17T16:55:24.868Z,43.73
2023-06-17T16:57:53.059Z,43.78
2023-06-17T17:00:27.776Z,43.92
2023-06-17T17:02:56.273Z,43.88
2023-06-17T17:05:26.747Z,43.84
2023-06-17T17:07:57.199Z,43.93
2023-06-17T17:10:26.794Z,43.89
2023-06-17T17:12:55.862Z,43.84
2023-06-17T17:15:26.268Z,44.04
2023-06-17T17:17:55.104Z,44.10
2023-06-17T17:20:23.465Z,44.12
2023-06-17T17:22:53.697Z,44.16
2023-06-17T17:25:22.533Z,44.30
2023-06-17T17:27:51.875Z,44.29
2023-06-17T17:30:20.569Z,44.34
2023-06-17T17:32:49.868Z,44.39
2023-06-17T17:35:20.128Z,44.49
2023-06-17T17:37:48.860Z,44.57
2023-06-17T17:40:17.495Z,44.61
2023-06-17T17:42:46.946Z,44.77
2023-06-17T17:45:16.775Z,44.65
2023-06-17T17:47:45.389Z,44.86
2023-06-17T17:50:14.101Z,44.81
2023-06-17T17:52:42.205Z,45.16
2023-06-17T17:55:10.526Z,45.19
2023-06-17T17:57:39.497Z,45.15
2023-06-17T18:00:13.789Z,45.31
2023-06-17T18:02:44.623Z,45.39
2023-06-17T18:05:12.194Z,45.56
2023-06-17T18:07:41.952Z,45.88
2023-06-17T18:10:09.628Z,46.18
2023-06-17T18:12:39.451Z,46.42
2023-06-17T18:15:09.165Z,46.49
2023-06-17T18:17:37.317Z,46.57
2023-06-17T18:20:05.841Z,46.66
2023-06-17T18:22:35.176Z,46.59
2023-06-17T18:25:13.173Z,46.45
2023-06-17T18:27:42.285Z,46.74
2023-06-17T18:30:12.878Z,46.78
2023-06-17T18:32:40.780Z,46.90
2023-06-17T18:35:08.385Z,47.08
2023-06-17T18:37:36.055Z,47.10
2023-06-17T18:40:05.903Z,47.30
2023-06-17T18:42:34.839Z,47.71
2023-06-17T18:45:02.775Z,47.81
2023-06-17T18:47:31.622Z,47.81
2023-06-17T18:50:02.419Z,47.82
2023-06-17T18:52:32.428Z,47.98
2023-06-17T18:55:01.645Z,48.12
2023-06-17T18:57:30.718Z,48.21
2023-06-17T18:59:59.240Z,48.32
2023-06-17T19:02:30.852Z,48.39
2023-06-17T19:05:00.975Z,48.65
2023-06-17T19:07:28.538Z,48.72
2023-06-17T19:09:57.256Z,48.83
2023-06-17T19:12:30.542Z,48.93
2023-06-17T19:14:59.097Z,49.08
2023-06-17T19:17:27.269Z,49.18
2023-06-17T19:19:54.740Z,49.38
2023-06-17T19:22:24.741Z,49.61
2023-06-17T19:24:53.249Z,49.67
2023-06-17T19:27:24.817Z,49.84
2023-06-17T19:30:03.022Z,50.03
2023-06-17T19:32:31.194Z,50.21
2023-06-17T19:35:00.766Z,50.38
2023-06-17T19:37:29.526Z,50.58
2023-06-17T19:39:58.706Z,50.74
2023-06-17T19:42:30.346Z,50.78
2023-06-17T19:44:58.167Z,50.84
2023-06-17T19:47:27.247Z,51.07
2023-06-17T19:49:57.591Z,51.06
2023-06-17T19:52:26.000Z,51.22
2023-06-17T19:54:54.948Z,51.23
2023-06-17T19:57:25.017Z,51.40
2023-06-17T19:59:54.428Z,51.57
2023-06-17T20:02:22.413Z,51.83
2023-06-17T20:04:50.121Z,51.91
2023-06-17T20:07:19.043Z,51.94
2023-06-17T20:09:49.415Z,52.18
2023-06-17T20:12:17.215Z,52.29
2023-06-17T20:14:45.351Z,52.57
2023-06-17T20:17:16.182Z,52.65
2023-06-17T20:19:44.558Z,52.75
2023-06-17T20:22:12.457Z,52.94
2023-06-17T20:24:40.803Z,53.00
2023-06-17T20:27:09.367Z,53.07
2023-06-17T20:29:37.676Z,53.31
2023-06-17T20:32:06.942Z,53.46
2023-06-17T20:34:35.535Z,53.37
2023-06-17T20:37:06.138Z,53.60
2023-06-17T20:39:33.711Z,53.63
2023-06-17T20:42:01.495Z,53.95
2023-06-17T20:44:31.284Z,53.84
2023-06-17T20:47:01.255Z,54.04
2023-06-17T20:49:33.005Z,54.20
2023-06-17T20:52:00.718Z,54.38
2023-06-17T20:54:30.055Z,54.47
2023-06-17T20:57:00.203Z,54.63
2023-06-17T20:59:29.182Z,54.57
2023-06-17T21:01:58.589Z,54.75
2023-06-17T21:04:26.514Z,54.65
2023-06-17T21:06:55.398Z,54.56
2023-06-17T21:09:26.623Z,54.47
2023-06-17T21:11:56.416Z,54.60
2023-06-17T21:14:28.560Z,54.87
2023-06-17T21:16:57.088Z,55.04
2023-06-17T21:19:26.275Z,55.15
2023-06-17T21:21:53.924Z,55.17
2023-06-17T21:24:23.036Z,55.39
2023-06-17T21:26:52.632Z,55.60
2023-06-17T21:29:22.844Z,55.64
2023-06-17T21:31:50.527Z,55.77
2023-06-17T21:34:19.112Z,55.91
2023-06-17T21:36:51.739Z,56.06
2023-06-17T21:39:20.265Z,56.10
2023-06-17T21:41:48.562Z,55.99
2023-06-17T21:44:16.410Z,56.18
2023-06-17T21:46:44.448Z,56.28
2023-06-17T21:49:13.164Z,56.47
2023-06-17T21:51:41.065Z,56.53
2023-06-17T21:54:10.095Z,56.50
2023-06-17T21:56:39.500Z,56.69
2023-06-17T21:59:08.606Z,56.82
2023-06-17T22:01:38.999Z,57.05
2023-06-17T22:04:09.592Z,57.22
2023-06-17T22:06:40.810Z,57.31
2023-06-17T22:09:11.903Z,57.34
2023-06-17T22:11:41.856Z,57.18
2023-06-17T22:14:11.291Z,57.21
2023-06-17T22:16:39.388Z,57.10
2023-06-17T22:19:09.174Z,57.21
2023-06-17T22:21:38.889Z,57.20
2023-06-17T22:24:06.713Z,57.33
2023-06-17T22:26:34.712Z,57.55
2023-06-17T22:29:08.723Z,57.77
2023-06-17T22:31:40.489Z,57.81
2023-06-17T22:34:15.503Z,57.84
2023-06-17T22:36:52.265Z,57.99
2023-06-17T22:39:20.773Z,58.13
2023-06-17T22:41:51.319Z,58.12
2023-06-17T22:44:20.314Z,58.16
2023-06-17T22:46:49.791Z,58.29
2023-06-17T22:49:18.330Z,58.26
2023-06-17T22:51:46.475Z,58.22
2023-06-17T22:54:19.144Z,58.28
2023-06-17T22:56:47.687Z,58.37
2023-06-17T22:59:17.691Z,58.49
2023-06-17T23:01:45.583Z,58.58
2023-06-17T23:04:19.027Z,58.56
2023-06-17T23:06:53.457Z,58.64
2023-06-17T23:09:23.132Z,58.72
2023-06-17T23:11:52.231Z,58.70
2023-06-17T23:14:19.881Z,58.83
2023-06-17T23:16:50.997Z,59.04
2023-06-17T23:19:19.479Z,59.23
2023-06-17T23:21:49.308Z,59.43
2023-06-17T23:24:17.527Z,59.60
2023-06-17T23:26:45.704Z,59.63
2023-06-17T23:29:14.207Z,59.79
2023-06-17T23:31:41.895Z,59.89
2023-06-17T23:34:09.798Z,60.01
2023-06-17T23:36:40.443Z,59.94
2023-06-17T23:39:11.394Z,60.04
2023-06-17T23:41:41.014Z,60.01
2023-06-17T23:44:09.111Z,59.66
2023-06-17T23:46:39.154Z,60.01
2023-06-17T23:49:09.386Z,60.05
2023-06-17T23:51:38.210Z,60.15
2023-06-17T23:54:07.513Z,60.37
2023-06-17T23:56:35.549Z,60.50
2023-06-17T23:59:06.214Z,60.54
